Latest Weather Observations for Terrey Hills

IDN60901

Issued at 10:01 pm EST Friday 23 June 2017 (issued every 10 minutes, with the page automatically refreshed every 10 minutes)

About weather observations | Map of Sydney area stations | Latest observations for Sydney area | Other Formats
Station Details ID: 066059 Name: TERREY HILLS AWS Lat: -33.69 Lon: 151.23 Height: 199.0 m
Data from the previous 72 hours. | See also: Recent months at Terrey Hills
Date/Time
EST
Temp
°C
App
Temp
°C
Dew
Point
°C
Rel
Hum
%
Delta-T
°C
Wind Press
QNH
hPa
Press
MSL
hPa
Rain since
9am
mm
Dir  Spd
km/h
Gust
km/h
Spd
kts
Gust
kts
23/10:00pm 12.2 9.7 4.9 61 3.4 NW 7 11 4 6 - - 0.0
23/09:30pm 12.7 10.3 5.1 60 3.6 WNW 7 13 4 7 - - 0.0
23/09:00pm 11.4 9.3 5.7 68 2.7 WNW 6 9 3 5 - - 0.0
23/08:30pm 12.7 10.5 5.4 61 3.4 WNW 6 7 3 4 - - 0.0
23/08:00pm 13.0 10.5 6.4 64 3.2 NW 9 19 5 10 - - 0.0
23/07:30pm 13.0 10.4 7.7 70 2.6 NW 11 19 6 10 - - 0.0
23/07:00pm 13.3 11.5 8.0 70 2.6 NW 7 17 4 9 - - 0.0
23/06:30pm 13.7 11.7 8.5 71 2.6 NNW 9 15 5 8 - - 0.0
23/06:00pm 13.8 12.2 8.8 72 2.5 NW 7 15 4 8 - - 0.0
23/05:30pm 13.7 11.8 9.0 73 2.4 NW 9 17 5 9 - - 0.0
23/05:00pm 14.4 12.9 9.2 71 2.7 NW 7 15 4 8 - - 0.0
23/04:30pm 14.6 13.4 10.2 75 2.3 NW 7 15 4 8 - - 0.0
23/04:00pm 15.4 13.9 10.6 73 2.6 NW 9 15 5 8 - - 0.0
23/03:30pm 14.9 13.8 10.7 76 2.2 NW 7 15 4 8 - - 0.0
23/03:00pm 14.5 13.5 10.9 79 1.9 NW 7 17 4 9 - - 0.0
23/02:30pm 14.4 12.9 10.6 78 2.0 NNW 9 13 5 7 - - 0.0
23/02:00pm 14.8 13.3 10.6 76 2.2 NNW 9 19 5 10 - - 0.0
23/01:30pm 16.8 16.0 11.7 72 2.8 NW 7 15 4 8 - - 0.0
23/01:00pm 16.4 16.2 11.8 74 2.5 NNW 4 9 2 5 - - 0.0
23/12:30pm 15.5 14.9 11.7 78 2.1 NNW 6 11 3 6 - - 0.0
23/12:00pm 15.3 14.8 11.9 80 1.9 NW 6 9 3 5 - - 0.0
23/11:30am 14.7 14.1 11.7 82 1.6 NNW 6 13 3 7 - - 0.0
23/11:00am 14.9 14.3 11.7 81 1.7 NW 6 11 3 6 - - 0.0
23/10:30am 13.6 12.9 12.0 90 0.9 NW 7 15 4 8 - - 0.0
23/10:00am 11.3 10.4 10.8 97 0.3 WNW 6 9 3 5 - - 0.0
23/09:30am 11.1 10.2 10.6 97 0.3 WNW 6 9 3 5 - - 0.0
23/09:00am 11.0 10.0 11.0 100 0.0 WNW 7 11 4 6 - - 0.0
23/08:30am 9.0 7.5 9.0 100 0.0 WNW 7 11 4 6 - - 0.0
23/08:00am 8.5 6.1 8.5 100 0.0 W 11 15 6 8 - - 0.0
23/07:30am 7.9 5.7 7.9 100 0.0 WNW 9 11 5 6 - - 0.0
23/07:00am 7.8 6.0 7.8 100 0.0 WNW 7 11 4 6 - - 0.0
23/06:30am 7.7 5.5 7.7 100 0.0 WNW 9 11 5 6 - - 0.0
23/06:00am 7.5 5.2 7.5 100 0.0 WNW 9 13 5 7 - - 0.0
23/05:30am 7.9 5.7 7.9 100 0.0 WNW 9 11 5 6 - - 0.0
23/05:00am 8.3 6.6 8.3 100 0.0 WNW 7 13 4 7 - - 0.0
23/04:30am 8.2 5.7 8.2 100 0.0 WNW 11 15 6 8 - - 0.0
23/04:00am 8.3 5.4 8.3 100 0.0 WNW 13 17 7 9 - - 0.0
23/03:30am 8.5 6.5 8.5 100 0.0 WNW 9 13 5 7 - - 0.0
23/03:00am 9.3 7.5 9.3 100 0.0 WNW 9 13 5 7 - - 0.0
23/02:30am 9.9 8.2 9.9 100 0.0 NW 9 15 5 8 - - 0.0
23/02:00am 10.4 8.9 10.4 100 0.0 NW 9 15 5 8 - - 0.0
23/01:30am 10.8 9.4 10.8 100 0.0 NW 9 15 5 8 - - 0.0
23/01:00am 10.9 9.9 10.9 100 0.0 NW 7 13 4 7 - - 0.0
23/12:30am 11.4 10.1 11.2 99 0.1 NNW 9 13 5 7 - - 0.0
23/12:00am 11.8 10.6 11.6 99 0.1 NNW 9 13 5 7 - - 0.0
 
Date/Time
EST
Temp
°C
App
Temp
°C
Dew
Point
°C
Rel
Hum
%
Delta-T
°C
Wind Press
QNH
hPa
Press
MSL
hPa
Rain since
9am
mm
Dir  Spd
km/h
Gust
km/h
Spd
kts
Gust
kts
22/11:30pm 12.0 11.2 11.7 98 0.2 NNW 7 9 4 5 - - 0.0
22/11:00pm 12.3 11.2 11.8 97 0.3 N 9 13 5 7 - - 0.0
22/10:30pm 12.5 11.4 11.9 96 0.3 N 9 13 5 7 - - 0.0
22/10:00pm 12.5 11.4 11.9 96 0.3 N 9 13 5 7 - - 0.0
22/09:30pm 13.1 12.0 12.0 93 0.6 N 9 13 5 7 - - 0.0
22/09:00pm 13.3 12.1 11.7 90 0.9 N 9 13 5 7 - - 0.0
22/08:30pm 13.1 12.4 12.0 93 0.6 N 7 11 4 6 - - 0.0
22/08:00pm 12.7 12.1 11.8 94 0.5 NNE 6 9 3 5 - - 0.0
22/07:30pm 12.5 12.7 12.0 97 0.3 NNE 2 6 1 3 - - 0.0
22/07:00pm 11.6 12.0 11.4 99 0.1 CALM 0 4 0 2 - - 0.0
22/06:30pm 11.6 11.7 11.4 99 0.1 NE 2 6 1 3 - - 0.0
22/06:00pm 11.7 12.1 11.2 97 0.3 CALM 0 0 0 0 - - 0.0
22/05:30pm 12.3 12.0 11.5 95 0.4 E 4 4 2 2 - - 0.0
22/05:00pm 12.6 12.6 11.3 92 0.7 ENE 2 6 1 3 - - 0.0
22/04:30pm 13.7 13.4 11.6 87 1.1 E 4 4 2 2 - - 0.0
22/04:00pm 14.8 14.6 11.8 82 1.6 ESE 4 6 2 3 - - 0.0
22/03:30pm 15.3 15.3 9.7 69 2.9 CALM 0 0 0 0 - - 0.0
22/03:00pm 15.9 16.1 10.4 70 2.9 CALM 0 0 0 0 - - 0.0
22/02:30pm 15.5 15.4 10.7 73 2.6 S 2 4 1 2 - - 0.0
22/02:00pm 16.0 15.2 9.7 66 3.3 SSW 4 6 2 3 - - 0.0
22/01:30pm 16.0 15.0 11.0 72 2.7 SW 7 13 4 7 - - 0.0
22/01:00pm 15.7 14.9 11.1 74 2.5 S 6 9 3 5 - - 0.0
22/12:30pm 15.9 15.2 12.1 78 2.1 SW 7 13 4 7 - - 0.0
22/12:00pm 15.4 14.8 12.2 81 1.8 SSW 7 13 4 7 - - 0.0
22/11:30am 15.0 14.1 12.7 86 1.3 SW 9 15 5 8 - - 0.0
22/11:00am 14.5 13.6 12.5 88 1.1 SSW 9 15 5 8 - - 0.0
22/10:30am 14.0 13.4 12.4 90 0.9 SW 7 17 4 9 - - 0.0
22/10:00am 13.4 12.0 12.1 92 0.7 WSW 11 17 6 9 - - 0.0
22/09:30am 12.7 11.4 11.4 92 0.7 WSW 9 17 5 9 - - 0.0
22/09:00am 11.6 9.8 10.8 95 0.4 W 11 17 6 9 - - 0.0
22/08:30am 10.4 8.4 10.2 99 0.1 W 11 19 6 10 - - 0.0
22/08:00am 9.3 6.7 9.3 100 0.0 W 13 19 7 10 - - 0.0
22/07:30am 8.6 5.8 8.6 100 0.0 W 13 19 7 10 - - 0.0
22/07:00am 8.8 6.1 8.8 100 0.0 W 13 17 7 9 - - 0.0
22/06:30am 9.2 6.6 9.2 100 0.0 W 13 19 7 10 - - 0.0
22/06:00am 9.2 6.6 9.2 100 0.0 W 13 17 7 9 - - 0.0
22/05:30am 9.1 6.4 9.1 100 0.0 W 13 17 7 9 - - 0.0
22/05:00am 9.5 7.3 9.5 100 0.0 W 11 17 6 9 - - 0.0
22/04:30am 9.5 7.7 9.5 100 0.0 W 9 13 5 7 - - 0.0
22/04:00am 9.4 7.2 9.4 100 0.0 W 11 15 6 8 - - 0.0
22/03:30am 9.1 6.8 9.1 100 0.0 W 11 17 6 9 - - 0.0
22/03:00am 9.9 7.8 9.9 100 0.0 WSW 11 19 6 10 - - 0.0
22/02:30am 10.1 8.4 10.0 99 0.1 WSW 9 17 5 9 - - 0.0
22/02:00am 10.6 8.7 10.4 99 0.1 WSW 11 20 6 11 - - 0.0
22/01:30am 10.0 8.3 9.9 99 0.1 WSW 9 15 5 8 - - 0.0
22/01:00am 10.4 8.4 10.2 99 0.1 WSW 11 19 6 10 - - 0.0
22/12:30am 10.2 8.6 10.2 100 0.0 W 9 15 5 8 - - 0.0
22/12:00am 10.4 8.8 10.2 99 0.1 W 9 13 5 7 - - 0.0
 
Date/Time
EST
Temp
°C
App
Temp
°C
Dew
Point
°C
Rel
Hum
%
Delta-T
°C
Wind Press
QNH
hPa
Press
MSL
hPa
Rain since
9am
mm
Dir  Spd
km/h
Gust
km/h
Spd
kts
Gust
kts
21/11:30pm 10.9 9.1 10.7 99 0.1 WSW 11 15 6 8 - - 0.0
21/11:00pm 11.3 9.1 10.8 97 0.3 WSW 13 19 7 10 - - 0.0
21/10:30pm 11.1 8.9 10.8 98 0.2 WSW 13 17 7 9 - - 0.0
21/10:00pm 10.7 9.2 10.5 99 0.1 W 9 13 5 7 - - 0.0
21/09:30pm 12.0 10.2 10.9 93 0.6 WSW 11 15 6 8 - - 0.0
21/09:00pm 12.5 10.3 10.9 90 0.8 WSW 13 20 7 11 - - 0.0
21/08:30pm 12.8 10.9 10.5 86 1.2 WSW 11 19 6 10 - - 0.0
21/08:00pm 13.6 12.1 10.4 81 1.7 SW 9 19 5 10 - - 0.0
21/07:30pm 13.1 12.0 10.6 85 1.3 SW 7 15 4 8 - - 0.0
21/07:00pm 13.1 12.0 10.8 86 1.2 SW 7 17 4 9 - - 0.0
21/06:30pm 13.5 12.1 10.9 84 1.4 SW 9 17 5 9 - - 0.0
21/06:00pm 13.8 12.4 11.0 83 1.5 SSW 9 15 5 8 - - 0.0
21/05:30pm 14.1 13.1 10.9 81 1.7 SSW 7 15 4 8 - - 0.0
21/05:00pm 14.3 12.8 10.5 78 2.0 S 9 17 5 9 - - 0.0
21/04:30pm 14.9 13.1 10.9 77 2.1 S 11 19 6 10 - - 0.0
21/04:00pm 15.5 14.2 11.1 75 2.4 S 9 24 5 13 - - 0.0
21/03:30pm 16.0 13.3 10.3 69 3.0 S 15 28 8 15 - - 0.0
21/03:00pm 16.2 14.6 11.6 74 2.5 SSW 11 22 6 12 - - 0.0
21/02:30pm 16.0 15.0 13.3 84 1.5 SSW 11 22 6 12 - - 0.0
21/02:00pm 16.4 15.5 13.7 84 1.5 SSW 11 24 6 13 - - 0.0
21/01:30pm 16.1 14.9 12.7 80 1.9 SW 11 20 6 11 - - 0.0
21/01:00pm 16.0 14.4 12.9 82 1.7 SW 13 20 7 11 - - 0.0
21/12:30pm 15.5 14.2 12.6 83 1.6 SW 11 17 6 9 - - 0.0
21/12:00pm 14.8 13.1 12.3 85 1.4 WSW 13 22 7 12 - - 0.0
21/11:30am 13.9 11.9 11.4 85 1.3 SW 13 19 7 10 - - 0.0
21/11:00am 14.1 12.2 11.8 86 1.2 WSW 13 22 7 12 - - 0.0
21/10:30am 12.2 9.5 9.0 81 1.6 WSW 13 20 7 11 - - 0.0
21/10:00am 12.2 9.9 9.0 81 1.6 WSW 11 19 6 10 - - 0.0
21/09:30am 11.8 9.9 9.0 83 1.4 W 9 15 5 8 - - 0.0
21/09:00am 10.9 8.4 8.3 84 1.3 WSW 11 17 6 9 - - 0.8
21/08:30am 10.0 6.9 7.4 84 1.3 W 13 17 7 9 - - 0.8
21/08:00am 9.4 5.9 7.0 85 1.1 WSW 15 20 8 11 - - 0.8
21/07:30am 8.5 5.0 7.4 93 0.5 W 15 20 8 11 - - 0.8
21/07:00am 8.1 5.2 8.0 99 0.0 W 13 22 7 12 - - 0.8
21/06:30am 8.5 5.3 8.5 100 0.0 WSW 15 20 8 11 - - 0.8
21/06:00am 7.7 4.7 7.7 100 0.0 W 13 17 7 9 - - 0.8
21/05:30am 7.7 5.1 7.7 100 0.0 W 11 17 6 9 - - 0.8
21/05:00am 7.9 5.3 7.9 100 0.0 W 11 15 6 8 - - 0.6
21/04:30am 8.3 5.4 8.3 100 0.0 W 13 17 7 9 - - 0.6
21/04:00am 8.4 5.6 8.4 100 0.0 W 13 17 7 9 - - 0.6
21/03:30am 8.9 6.2 8.9 100 0.0 WNW 13 15 7 8 - - 0.6
21/03:00am 9.1 6.4 9.1 100 0.0 W 13 17 7 9 - - 0.6
21/02:30am 9.6 7.1 9.6 100 0.0 WNW 13 15 7 8 - - 0.6
21/02:00am 10.2 9.0 10.2 100 0.0 WNW 7 11 4 6 - - 0.6
21/01:30am 11.1 9.8 11.1 100 0.0 NW 9 13 5 7 - - 0.6
21/01:00am 11.4 10.5 11.4 100 0.0 NW 7 11 4 6 - - 0.6
21/12:30am 11.2 10.4 11.2 100 0.0 NW 6 11 3 6 - - 0.6
21/12:00am 11.3 10.6 11.3 100 0.0 NW 6 9 3 5 - - 0.6
 
Date/Time
EST
Temp
°C
App
Temp
°C
Dew
Point
°C
Rel
Hum
%
Delta-T
°C
Wind Press
QNH
hPa
Press
MSL
hPa
Rain since
9am
mm
Dir  Spd
km/h
Gust
km/h
Spd
kts
Gust
kts
20/11:30pm 11.4 10.7 11.4 100 0.0 NW 6 9 3 5 - - 0.6
20/11:00pm 11.3 11.0 11.3 100 0.0 NW 4 6 2 3 - - 0.6
20/10:30pm 11.4 11.8 11.4 100 0.0 CALM 0 0 0 0 - - 0.6

Latest Capital City Observations: Canberra | Sydney | Melbourne | Brisbane | Adelaide | Perth | Hobart | Darwin

Other Formats:

Comma delimited format used in spreadsheet applications
http://www.bom.gov.au/fwo/IDN60901/IDN60901.94759.axf

JavaScript Object Notation format (JSON) in row-major order
http://www.bom.gov.au/fwo/IDN60901/IDN60901.94759.json